sensor_id;sensor_type;location;lat;lon;timestamp;P1;durP1;ratioP1;P2;durP2;ratioP2
16516;SDS011;8371;52.272;9.746;2023-02-28T00:00:09;1.43;;;1.43;;
16516;SDS011;8371;52.272;9.746;2023-02-28T00:02:37;1.43;;;1.43;;
16516;SDS011;8371;52.272;9.746;2023-02-28T00:05:04;1.50;;;1.50;;
16516;SDS011;8371;52.272;9.746;2023-02-28T00:07:31;1.30;;;1.30;;
16516;SDS011;8371;52.272;9.746;2023-02-28T00:09:57;1.40;;;1.40;;
16516;SDS011;8371;52.272;9.746;2023-02-28T00:12:23;1.30;;;1.30;;
16516;SDS011;8371;52.272;9.746;2023-02-28T00:14:49;1.53;;;1.43;;
16516;SDS011;8371;52.272;9.746;2023-02-28T00:17:15;1.07;;;1.07;;
16516;SDS011;8371;52.272;9.746;2023-02-28T00:19:43;1.40;;;1.40;;
16516;SDS011;8371;52.272;9.746;2023-02-28T00:22:09;1.03;;;1.03;;
16516;SDS011;8371;52.272;9.746;2023-02-28T00:24:35;1.20;;;1.20;;
16516;SDS011;8371;52.272;9.746;2023-02-28T00:27:00;1.10;;;1.10;;
16516;SDS011;8371;52.272;9.746;2023-02-28T00:29:26;1.10;;;1.10;;
16516;SDS011;8371;52.272;9.746;2023-02-28T00:31:52;1.67;;;1.57;;
16516;SDS011;8371;52.272;9.746;2023-02-28T00:34:17;0.90;;;0.90;;
16516;SDS011;8371;52.272;9.746;2023-02-28T00:36:43;1.30;;;1.30;;
16516;SDS011;8371;52.272;9.746;2023-02-28T00:39:11;1.10;;;1.10;;
16516;SDS011;8371;52.272;9.746;2023-02-28T00:41:37;1.37;;;1.30;;
16516;SDS011;8371;52.272;9.746;2023-02-28T00:44:02;0.90;;;0.90;;
16516;SDS011;8371;52.272;9.746;2023-02-28T00:46:28;1.10;;;1.10;;
16516;SDS011;8371;52.272;9.746;2023-02-28T00:48:54;1.23;;;1.23;;
16516;SDS011;8371;52.272;9.746;2023-02-28T00:51:19;1.47;;;1.37;;
16516;SDS011;8371;52.272;9.746;2023-02-28T00:53:45;1.27;;;1.27;;
16516;SDS011;8371;52.272;9.746;2023-02-28T00:56:11;1.40;;;1.40;;
16516;SDS011;8371;52.272;9.746;2023-02-28T00:58:36;1.20;;;1.20;;
16516;SDS011;8371;52.272;9.746;2023-02-28T01:01:02;0.97;;;0.97;;
16516;SDS011;8371;52.272;9.746;2023-02-28T01:03:27;1.00;;;1.00;;
16516;SDS011;8371;52.272;9.746;2023-02-28T01:05:53;0.93;;;0.93;;
16516;SDS011;8371;52.272;9.746;2023-02-28T01:08:19;1.10;;;1.10;;
16516;SDS011;8371;52.272;9.746;2023-02-28T01:10:45;1.40;;;1.40;;
16516;SDS011;8371;52.272;9.746;2023-02-28T01:13:11;1.07;;;1.07;;
16516;SDS011;8371;52.272;9.746;2023-02-28T01:15:38;1.20;;;1.20;;
16516;SDS011;8371;52.272;9.746;2023-02-28T01:18:13;0.93;;;0.93;;
16516;SDS011;8371;52.272;9.746;2023-02-28T01:20:38;1.40;;;1.40;;
16516;SDS011;8371;52.272;9.746;2023-02-28T01:23:04;1.17;;;1.17;;
16516;SDS011;8371;52.272;9.746;2023-02-28T01:25:30;1.20;;;1.20;;
16516;SDS011;8371;52.272;9.746;2023-02-28T01:27:56;1.07;;;1.07;;
16516;SDS011;8371;52.272;9.746;2023-02-28T01:30:21;1.27;;;1.27;;
16516;SDS011;8371;52.272;9.746;2023-02-28T01:32:47;1.13;;;1.13;;
16516;SDS011;8371;52.272;9.746;2023-02-28T01:35:13;1.13;;;1.13;;
16516;SDS011;8371;52.272;9.746;2023-02-28T01:37:38;1.10;;;1.10;;
16516;SDS011;8371;52.272;9.746;2023-02-28T01:40:04;1.20;;;1.20;;
16516;SDS011;8371;52.272;9.746;2023-02-28T01:42:31;1.30;;;1.30;;
16516;SDS011;8371;52.272;9.746;2023-02-28T01:45:08;1.13;;;1.13;;
16516;SDS011;8371;52.272;9.746;2023-02-28T01:47:42;1.20;;;1.20;;
16516;SDS011;8371;52.272;9.746;2023-02-28T01:50:09;1.13;;;1.13;;
16516;SDS011;8371;52.272;9.746;2023-02-28T01:52:41;1.30;;;1.30;;
16516;SDS011;8371;52.272;9.746;2023-02-28T01:55:07;1.10;;;1.10;;
16516;SDS011;8371;52.272;9.746;2023-02-28T01:57:36;1.43;;;1.40;;
16516;SDS011;8371;52.272;9.746;2023-02-28T02:00:06;1.30;;;1.30;;
16516;SDS011;8371;52.272;9.746;2023-02-28T02:02:38;1.10;;;1.10;;
16516;SDS011;8371;52.272;9.746;2023-02-28T02:05:25;1.10;;;1.10;;
16516;SDS011;8371;52.272;9.746;2023-02-28T02:07:47;0.90;;;0.90;;
16516;SDS011;8371;52.272;9.746;2023-02-28T02:10:16;1.10;;;1.00;;
16516;SDS011;8371;52.272;9.746;2023-02-28T02:15:34;1.10;;;1.10;;
16516;SDS011;8371;52.272;9.746;2023-02-28T02:18:19;1.00;;;1.00;;
16516;SDS011;8371;52.272;9.746;2023-02-28T02:20:58;1.10;;;1.00;;
16516;SDS011;8371;52.272;9.746;2023-02-28T02:23:49;1.10;;;1.10;;
16516;SDS011;8371;52.272;9.746;2023-02-28T02:26:35;1.23;;;1.23;;
16516;SDS011;8371;52.272;9.746;2023-02-28T02:29:25;0.90;;;0.90;;
16516;SDS011;8371;52.272;9.746;2023-02-28T02:32:18;1.00;;;1.00;;
16516;SDS011;8371;52.272;9.746;2023-02-28T02:34:56;1.03;;;1.03;;
16516;SDS011;8371;52.272;9.746;2023-02-28T02:40:14;1.23;;;1.23;;
16516;SDS011;8371;52.272;9.746;2023-02-28T02:42:56;1.30;;;1.30;;
16516;SDS011;8371;52.272;9.746;2023-02-28T02:45:34;1.40;;;1.40;;
16516;SDS011;8371;52.272;9.746;2023-02-28T02:48:16;1.20;;;1.20;;
16516;SDS011;8371;52.272;9.746;2023-02-28T02:50:45;1.20;;;1.20;;
16516;SDS011;8371;52.272;9.746;2023-02-28T02:53:12;0.80;;;0.80;;
16516;SDS011;8371;52.272;9.746;2023-02-28T02:55:41;0.90;;;0.90;;
16516;SDS011;8371;52.272;9.746;2023-02-28T02:58:11;1.40;;;1.40;;
16516;SDS011;8371;52.272;9.746;2023-02-28T03:00:41;0.93;;;0.93;;
16516;SDS011;8371;52.272;9.746;2023-02-28T03:03:09;1.10;;;1.10;;
16516;SDS011;8371;52.272;9.746;2023-02-28T03:05:45;1.17;;;1.13;;
16516;SDS011;8371;52.272;9.746;2023-02-28T03:08:11;1.07;;;1.07;;
16516;SDS011;8371;52.272;9.746;2023-02-28T03:10:38;1.10;;;1.10;;
16516;SDS011;8371;52.272;9.746;2023-02-28T03:13:18;0.87;;;0.87;;
16516;SDS011;8371;52.272;9.746;2023-02-28T03:15:49;0.90;;;0.90;;
16516;SDS011;8371;52.272;9.746;2023-02-28T03:18:20;1.57;;;1.57;;
16516;SDS011;8371;52.272;9.746;2023-02-28T03:20:55;1.00;;;1.00;;
16516;SDS011;8371;52.272;9.746;2023-02-28T03:23:23;0.93;;;0.93;;
16516;SDS011;8371;52.272;9.746;2023-02-28T03:26:13;0.97;;;0.97;;
16516;SDS011;8371;52.272;9.746;2023-02-28T03:28:43;0.83;;;0.83;;
16516;SDS011;8371;52.272;9.746;2023-02-28T03:31:21;1.00;;;1.00;;
16516;SDS011;8371;52.272;9.746;2023-02-28T03:33:47;0.87;;;0.87;;
16516;SDS011;8371;52.272;9.746;2023-02-28T03:36:21;0.73;;;0.73;;
16516;SDS011;8371;52.272;9.746;2023-02-28T03:38:59;0.93;;;0.93;;
16516;SDS011;8371;52.272;9.746;2023-02-28T03:41:32;1.03;;;1.03;;
16516;SDS011;8371;52.272;9.746;2023-02-28T03:44:02;0.87;;;0.87;;
16516;SDS011;8371;52.272;9.746;2023-02-28T03:46:33;0.60;;;0.60;;
16516;SDS011;8371;52.272;9.746;2023-02-28T03:49:15;0.80;;;0.80;;
16516;SDS011;8371;52.272;9.746;2023-02-28T03:51:43;1.23;;;0.80;;
16516;SDS011;8371;52.272;9.746;2023-02-28T03:54:25;0.67;;;0.67;;
16516;SDS011;8371;52.272;9.746;2023-02-28T03:57:03;0.63;;;0.63;;
16516;SDS011;8371;52.272;9.746;2023-02-28T03:59:41;0.80;;;0.80;;
16516;SDS011;8371;52.272;9.746;2023-02-28T04:02:09;0.57;;;0.57;;
16516;SDS011;8371;52.272;9.746;2023-02-28T04:04:35;0.80;;;0.80;;
16516;SDS011;8371;52.272;9.746;2023-02-28T04:07:02;0.83;;;0.83;;
16516;SDS011;8371;52.272;9.746;2023-02-28T04:09:30;0.70;;;0.70;;
16516;SDS011;8371;52.272;9.746;2023-02-28T04:11:55;0.63;;;0.63;;
16516;SDS011;8371;52.272;9.746;2023-02-28T04:14:21;0.90;;;0.90;;
16516;SDS011;8371;52.272;9.746;2023-02-28T04:16:48;0.83;;;0.83;;
16516;SDS011;8371;52.272;9.746;2023-02-28T04:19:13;0.53;;;0.53;;
16516;SDS011;8371;52.272;9.746;2023-02-28T04:21:41;0.80;;;0.80;;
16516;SDS011;8371;52.272;9.746;2023-02-28T04:24:08;0.53;;;0.53;;
16516;SDS011;8371;52.272;9.746;2023-02-28T04:26:37;0.90;;;0.90;;
16516;SDS011;8371;52.272;9.746;2023-02-28T04:29:04;0.73;;;0.73;;
16516;SDS011;8371;52.272;9.746;2023-02-28T04:31:30;0.70;;;0.70;;
16516;SDS011;8371;52.272;9.746;2023-02-28T04:33:56;0.70;;;0.70;;
16516;SDS011;8371;52.272;9.746;2023-02-28T04:36:22;1.00;;;1.00;;
16516;SDS011;8371;52.272;9.746;2023-02-28T04:38:48;0.70;;;0.70;;
16516;SDS011;8371;52.272;9.746;2023-02-28T04:41:14;0.60;;;0.60;;
16516;SDS011;8371;52.272;9.746;2023-02-28T04:43:40;0.80;;;0.80;;
16516;SDS011;8371;52.272;9.746;2023-02-28T04:46:06;0.70;;;0.70;;
16516;SDS011;8371;52.272;9.746;2023-02-28T04:48:32;0.63;;;0.63;;
16516;SDS011;8371;52.272;9.746;2023-02-28T04:51:05;0.70;;;0.70;;
16516;SDS011;8371;52.272;9.746;2023-02-28T04:53:28;0.50;;;0.50;;
16516;SDS011;8371;52.272;9.746;2023-02-28T04:55:55;0.90;;;0.90;;
16516;SDS011;8371;52.272;9.746;2023-02-28T04:58:21;0.70;;;0.70;;
16516;SDS011;8371;52.272;9.746;2023-02-28T05:00:50;1.10;;;1.10;;
16516;SDS011;8371;52.272;9.746;2023-02-28T05:03:16;0.70;;;0.70;;
16516;SDS011;8371;52.272;9.746;2023-02-28T05:05:42;0.90;;;0.90;;
16516;SDS011;8371;52.272;9.746;2023-02-28T05:08:08;0.80;;;0.80;;
16516;SDS011;8371;52.272;9.746;2023-02-28T05:10:35;1.00;;;1.00;;
16516;SDS011;8371;52.272;9.746;2023-02-28T05:13:01;0.80;;;0.80;;
16516;SDS011;8371;52.272;9.746;2023-02-28T05:15:27;0.77;;;0.77;;
16516;SDS011;8371;52.272;9.746;2023-02-28T05:17:53;1.03;;;1.03;;
16516;SDS011;8371;52.272;9.746;2023-02-28T05:20:19;1.10;;;1.10;;
16516;SDS011;8371;52.272;9.746;2023-02-28T05:22:46;0.90;;;0.90;;
16516;SDS011;8371;52.272;9.746;2023-02-28T05:25:12;0.90;;;0.90;;
16516;SDS011;8371;52.272;9.746;2023-02-28T05:27:41;1.10;;;1.10;;
16516;SDS011;8371;52.272;9.746;2023-02-28T05:30:08;1.10;;;1.10;;
16516;SDS011;8371;52.272;9.746;2023-02-28T05:32:38;1.20;;;1.20;;
16516;SDS011;8371;52.272;9.746;2023-02-28T05:35:07;0.97;;;0.97;;
16516;SDS011;8371;52.272;9.746;2023-02-28T05:37:33;1.30;;;1.30;;
16516;SDS011;8371;52.272;9.746;2023-02-28T05:39:59;1.30;;;1.30;;
16516;SDS011;8371;52.272;9.746;2023-02-28T05:42:25;1.20;;;1.20;;
16516;SDS011;8371;52.272;9.746;2023-02-28T05:44:50;1.20;;;1.20;;
16516;SDS011;8371;52.272;9.746;2023-02-28T05:47:17;1.30;;;1.30;;
16516;SDS011;8371;52.272;9.746;2023-02-28T05:49:42;1.20;;;1.20;;
16516;SDS011;8371;52.272;9.746;2023-02-28T05:52:08;1.10;;;1.10;;
16516;SDS011;8371;52.272;9.746;2023-02-28T05:54:34;1.27;;;1.27;;
16516;SDS011;8371;52.272;9.746;2023-02-28T05:56:59;1.27;;;1.27;;
16516;SDS011;8371;52.272;9.746;2023-02-28T05:59:25;1.47;;;1.47;;
16516;SDS011;8371;52.272;9.746;2023-02-28T06:01:51;1.20;;;1.20;;
16516;SDS011;8371;52.272;9.746;2023-02-28T06:04:19;1.40;;;1.30;;
16516;SDS011;8371;52.272;9.746;2023-02-28T06:06:46;1.20;;;1.20;;
16516;SDS011;8371;52.272;9.746;2023-02-28T06:09:12;1.13;;;1.13;;
16516;SDS011;8371;52.272;9.746;2023-02-28T06:11:38;1.03;;;1.03;;
16516;SDS011;8371;52.272;9.746;2023-02-28T06:14:05;0.90;;;0.90;;
16516;SDS011;8371;52.272;9.746;2023-02-28T06:16:32;1.20;;;1.20;;
16516;SDS011;8371;52.272;9.746;2023-02-28T06:18:59;0.93;;;0.90;;
16516;SDS011;8371;52.272;9.746;2023-02-28T06:21:26;1.10;;;1.10;;
16516;SDS011;8371;52.272;9.746;2023-02-28T06:23:53;1.00;;;1.00;;
16516;SDS011;8371;52.272;9.746;2023-02-28T06:26:19;0.80;;;0.80;;
16516;SDS011;8371;52.272;9.746;2023-02-28T06:28:45;1.10;;;1.10;;
16516;SDS011;8371;52.272;9.746;2023-02-28T06:31:12;0.67;;;0.67;;
16516;SDS011;8371;52.272;9.746;2023-02-28T06:33:39;1.10;;;1.00;;
16516;SDS011;8371;52.272;9.746;2023-02-28T06:36:06;1.10;;;1.10;;
16516;SDS011;8371;52.272;9.746;2023-02-28T06:38:33;0.90;;;0.90;;
16516;SDS011;8371;52.272;9.746;2023-02-28T06:40:59;0.93;;;0.93;;
16516;SDS011;8371;52.272;9.746;2023-02-28T06:43:27;1.50;;;1.50;;
16516;SDS011;8371;52.272;9.746;2023-02-28T06:45:55;0.97;;;0.97;;
16516;SDS011;8371;52.272;9.746;2023-02-28T06:48:22;0.80;;;0.80;;
16516;SDS011;8371;52.272;9.746;2023-02-28T06:50:48;1.00;;;1.00;;
16516;SDS011;8371;52.272;9.746;2023-02-28T06:53:13;0.73;;;0.73;;
16516;SDS011;8371;52.272;9.746;2023-02-28T06:55:40;1.00;;;1.00;;
16516;SDS011;8371;52.272;9.746;2023-02-28T06:58:06;1.00;;;1.00;;
16516;SDS011;8371;52.272;9.746;2023-02-28T07:00:45;0.83;;;0.70;;
16516;SDS011;8371;52.272;9.746;2023-02-28T07:03:09;0.83;;;0.83;;
16516;SDS011;8371;52.272;9.746;2023-02-28T07:05:35;1.20;;;1.20;;
16516;SDS011;8371;52.272;9.746;2023-02-28T07:08:03;1.37;;;1.27;;
16516;SDS011;8371;52.272;9.746;2023-02-28T07:10:29;1.10;;;1.10;;
16516;SDS011;8371;52.272;9.746;2023-02-28T07:12:55;1.60;;;1.60;;
16516;SDS011;8371;52.272;9.746;2023-02-28T07:15:21;1.60;;;1.60;;
16516;SDS011;8371;52.272;9.746;2023-02-28T07:17:47;1.97;;;1.87;;
16516;SDS011;8371;52.272;9.746;2023-02-28T07:20:12;1.37;;;1.37;;
16516;SDS011;8371;52.272;9.746;2023-02-28T07:22:38;1.67;;;1.57;;
16516;SDS011;8371;52.272;9.746;2023-02-28T07:25:04;1.33;;;1.33;;
16516;SDS011;8371;52.272;9.746;2023-02-28T07:27:31;1.53;;;1.53;;
16516;SDS011;8371;52.272;9.746;2023-02-28T07:29:57;1.00;;;1.00;;
16516;SDS011;8371;52.272;9.746;2023-02-28T07:32:22;1.40;;;1.40;;
16516;SDS011;8371;52.272;9.746;2023-02-28T07:34:48;1.47;;;1.47;;
16516;SDS011;8371;52.272;9.746;2023-02-28T07:37:14;1.13;;;1.13;;
16516;SDS011;8371;52.272;9.746;2023-02-28T07:39:40;1.30;;;1.30;;
16516;SDS011;8371;52.272;9.746;2023-02-28T07:42:07;1.10;;;1.10;;
16516;SDS011;8371;52.272;9.746;2023-02-28T07:44:35;1.10;;;1.10;;
16516;SDS011;8371;52.272;9.746;2023-02-28T07:47:03;1.43;;;1.30;;
16516;SDS011;8371;52.272;9.746;2023-02-28T07:49:29;1.50;;;1.50;;
16516;SDS011;8371;52.272;9.746;2023-02-28T07:51:54;1.20;;;1.20;;
16516;SDS011;8371;52.272;9.746;2023-02-28T07:54:20;1.73;;;1.63;;
16516;SDS011;8371;52.272;9.746;2023-02-28T07:56:46;2.07;;;1.87;;
16516;SDS011;8371;52.272;9.746;2023-02-28T07:59:11;2.30;;;2.20;;
16516;SDS011;8371;52.272;9.746;2023-02-28T08:01:37;2.17;;;2.10;;
16516;SDS011;8371;52.272;9.746;2023-02-28T08:04:03;1.90;;;1.80;;
16516;SDS011;8371;52.272;9.746;2023-02-28T08:06:29;2.13;;;2.03;;
16516;SDS011;8371;52.272;9.746;2023-02-28T08:08:54;1.40;;;1.40;;
16516;SDS011;8371;52.272;9.746;2023-02-28T08:11:21;1.60;;;1.60;;
16516;SDS011;8371;52.272;9.746;2023-02-28T08:13:47;1.77;;;1.67;;
16516;SDS011;8371;52.272;9.746;2023-02-28T08:16:13;1.40;;;1.40;;
16516;SDS011;8371;52.272;9.746;2023-02-28T08:18:41;1.90;;;1.90;;
16516;SDS011;8371;52.272;9.746;2023-02-28T08:21:07;1.50;;;1.50;;
16516;SDS011;8371;52.272;9.746;2023-02-28T08:23:34;2.20;;;2.00;;
16516;SDS011;8371;52.272;9.746;2023-02-28T08:26:01;2.03;;;1.93;;
16516;SDS011;8371;52.272;9.746;2023-02-28T08:28:27;1.50;;;1.50;;
16516;SDS011;8371;52.272;9.746;2023-02-28T08:30:53;1.87;;;1.70;;
16516;SDS011;8371;52.272;9.746;2023-02-28T08:33:20;1.77;;;1.77;;
16516;SDS011;8371;52.272;9.746;2023-02-28T08:35:46;2.23;;;2.13;;
16516;SDS011;8371;52.272;9.746;2023-02-28T08:38:12;2.13;;;2.03;;
16516;SDS011;8371;52.272;9.746;2023-02-28T08:40:38;3.17;;;2.40;;
16516;SDS011;8371;52.272;9.746;2023-02-28T08:43:03;2.50;;;2.40;;
16516;SDS011;8371;52.272;9.746;2023-02-28T08:45:29;2.60;;;2.50;;
16516;SDS011;8371;52.272;9.746;2023-02-28T08:47:55;2.40;;;2.30;;
16516;SDS011;8371;52.272;9.746;2023-02-28T08:50:21;2.40;;;2.30;;
16516;SDS011;8371;52.272;9.746;2023-02-28T08:52:47;2.53;;;2.43;;
16516;SDS011;8371;52.272;9.746;2023-02-28T08:55:13;2.30;;;2.20;;
16516;SDS011;8371;52.272;9.746;2023-02-28T08:57:39;1.83;;;1.83;;
16516;SDS011;8371;52.272;9.746;2023-02-28T09:00:06;2.30;;;2.20;;
16516;SDS011;8371;52.272;9.746;2023-02-28T09:02:33;2.80;;;2.70;;
16516;SDS011;8371;52.272;9.746;2023-02-28T09:04:59;3.17;;;3.00;;
16516;SDS011;8371;52.272;9.746;2023-02-28T09:07:25;2.30;;;2.20;;
16516;SDS011;8371;52.272;9.746;2023-02-28T09:09:51;2.37;;;2.27;;
16516;SDS011;8371;52.272;9.746;2023-02-28T09:12:20;2.50;;;2.40;;
16516;SDS011;8371;52.272;9.746;2023-02-28T09:14:47;2.30;;;2.20;;
16516;SDS011;8371;52.272;9.746;2023-02-28T09:17:12;1.97;;;1.83;;
16516;SDS011;8371;52.272;9.746;2023-02-28T09:19:38;3.20;;;3.00;;
16516;SDS011;8371;52.272;9.746;2023-02-28T09:22:04;2.50;;;2.40;;
16516;SDS011;8371;52.272;9.746;2023-02-28T09:24:29;2.50;;;2.40;;
16516;SDS011;8371;52.272;9.746;2023-02-28T09:26:56;2.50;;;2.40;;
16516;SDS011;8371;52.272;9.746;2023-02-28T09:29:22;2.37;;;2.27;;
16516;SDS011;8371;52.272;9.746;2023-02-28T09:31:48;2.27;;;2.17;;
16516;SDS011;8371;52.272;9.746;2023-02-28T09:34:14;2.30;;;2.20;;
16516;SDS011;8371;52.272;9.746;2023-02-28T09:36:41;2.67;;;2.47;;
16516;SDS011;8371;52.272;9.746;2023-02-28T09:39:06;2.50;;;2.37;;
16516;SDS011;8371;52.272;9.746;2023-02-28T09:41:37;2.70;;;2.60;;
16516;SDS011;8371;52.272;9.746;2023-02-28T09:44:10;2.00;;;2.00;;
16516;SDS011;8371;52.272;9.746;2023-02-28T09:46:40;2.00;;;2.00;;
16516;SDS011;8371;52.272;9.746;2023-02-28T09:49:12;1.80;;;1.70;;
16516;SDS011;8371;52.272;9.746;2023-02-28T09:51:44;1.70;;;1.70;;
16516;SDS011;8371;52.272;9.746;2023-02-28T09:54:21;1.57;;;1.57;;
16516;SDS011;8371;52.272;9.746;2023-02-28T09:56:49;1.73;;;1.60;;
16516;SDS011;8371;52.272;9.746;2023-02-28T09:59:24;1.50;;;1.50;;
16516;SDS011;8371;52.272;9.746;2023-02-28T10:04:50;1.53;;;1.53;;
16516;SDS011;8371;52.272;9.746;2023-02-28T10:07:30;1.37;;;1.37;;
16516;SDS011;8371;52.272;9.746;2023-02-28T10:09:58;1.60;;;1.60;;
16516;SDS011;8371;52.272;9.746;2023-02-28T10:12:27;1.30;;;1.30;;
16516;SDS011;8371;52.272;9.746;2023-02-28T10:14:55;1.40;;;1.40;;
16516;SDS011;8371;52.272;9.746;2023-02-28T10:17:25;1.40;;;1.40;;
16516;SDS011;8371;52.272;9.746;2023-02-28T10:20:01;2.23;;;1.50;;
16516;SDS011;8371;52.272;9.746;2023-02-28T10:25:15;1.03;;;1.03;;
16516;SDS011;8371;52.272;9.746;2023-02-28T10:27:43;1.40;;;1.30;;
16516;SDS011;8371;52.272;9.746;2023-02-28T10:30:09;1.30;;;1.30;;
16516;SDS011;8371;52.272;9.746;2023-02-28T10:32:37;1.47;;;1.47;;
16516;SDS011;8371;52.272;9.746;2023-02-28T10:35:14;1.10;;;1.10;;
16516;SDS011;8371;52.272;9.746;2023-02-28T10:37:47;1.60;;;1.50;;
16516;SDS011;8371;52.272;9.746;2023-02-28T10:45:31;1.40;;;1.40;;
16516;SDS011;8371;52.272;9.746;2023-02-28T10:48:04;2.27;;;1.43;;
16516;SDS011;8371;52.272;9.746;2023-02-28T10:50:46;1.00;;;1.00;;
16516;SDS011;8371;52.272;9.746;2023-02-28T10:56:05;1.10;;;1.10;;
16516;SDS011;8371;52.272;9.746;2023-02-28T10:58:47;2.33;;;1.07;;
16516;SDS011;8371;52.272;9.746;2023-02-28T11:01:36;1.90;;;1.80;;
16516;SDS011;8371;52.272;9.746;2023-02-28T11:07:01;1.47;;;1.40;;
16516;SDS011;8371;52.272;9.746;2023-02-28T11:09:36;1.30;;;1.30;;
16516;SDS011;8371;52.272;9.746;2023-02-28T11:12:21;1.60;;;1.50;;
16516;SDS011;8371;52.272;9.746;2023-02-28T11:14:36;3.53;;;1.57;;
16516;SDS011;8371;52.272;9.746;2023-02-28T11:17:20;1.40;;;1.40;;
16516;SDS011;8371;52.272;9.746;2023-02-28T11:19:50;1.50;;;1.40;;
16516;SDS011;8371;52.272;9.746;2023-02-28T11:22:23;1.40;;;1.30;;
16516;SDS011;8371;52.272;9.746;2023-02-28T11:24:47;1.40;;;1.30;;
16516;SDS011;8371;52.272;9.746;2023-02-28T11:30:03;1.10;;;1.10;;
16516;SDS011;8371;52.272;9.746;2023-02-28T11:32:33;2.53;;;1.30;;
16516;SDS011;8371;52.272;9.746;2023-02-28T11:37:59;2.10;;;1.30;;
16516;SDS011;8371;52.272;9.746;2023-02-28T11:40:31;1.33;;;1.33;;
16516;SDS011;8371;52.272;9.746;2023-02-28T11:43:10;1.40;;;1.40;;
16516;SDS011;8371;52.272;9.746;2023-02-28T11:45:44;1.13;;;1.13;;
16516;SDS011;8371;52.272;9.746;2023-02-28T11:48:16;1.00;;;1.00;;
16516;SDS011;8371;52.272;9.746;2023-02-28T11:51:05;1.40;;;1.40;;
16516;SDS011;8371;52.272;9.746;2023-02-28T11:53:38;1.60;;;1.50;;
16516;SDS011;8371;52.272;9.746;2023-02-28T11:56:08;1.50;;;1.40;;
16516;SDS011;8371;52.272;9.746;2023-02-28T11:58:55;1.20;;;1.20;;
16516;SDS011;8371;52.272;9.746;2023-02-28T12:06:45;1.30;;;1.30;;
16516;SDS011;8371;52.272;9.746;2023-02-28T12:09:34;1.30;;;1.30;;
16516;SDS011;8371;52.272;9.746;2023-02-28T12:17:54;1.50;;;1.50;;
16516;SDS011;8371;52.272;9.746;2023-02-28T12:20:24;1.10;;;1.10;;
16516;SDS011;8371;52.272;9.746;2023-02-28T12:26:15;1.20;;;1.20;;
16516;SDS011;8371;52.272;9.746;2023-02-28T12:28:47;10.87;;;1.63;;
16516;SDS011;8371;52.272;9.746;2023-02-28T12:31:22;1.70;;;1.17;;
16516;SDS011;8371;52.272;9.746;2023-02-28T12:33:53;1.00;;;1.00;;
16516;SDS011;8371;52.272;9.746;2023-02-28T12:36:24;1.60;;;1.50;;
16516;SDS011;8371;52.272;9.746;2023-02-28T12:38:56;1.20;;;1.20;;
16516;SDS011;8371;52.272;9.746;2023-02-28T12:41:29;1.30;;;1.30;;
16516;SDS011;8371;52.272;9.746;2023-02-28T12:44:07;1.47;;;1.47;;
16516;SDS011;8371;52.272;9.746;2023-02-28T12:46:38;1.50;;;1.40;;
16516;SDS011;8371;52.272;9.746;2023-02-28T12:49:08;3.87;;;1.63;;
16516;SDS011;8371;52.272;9.746;2023-02-28T12:51:35;1.70;;;1.60;;
16516;SDS011;8371;52.272;9.746;2023-02-28T12:54:08;1.80;;;1.50;;
16516;SDS011;8371;52.272;9.746;2023-02-28T12:56:53;1.40;;;1.40;;
16516;SDS011;8371;52.272;9.746;2023-02-28T13:05:11;1.90;;;1.50;;
16516;SDS011;8371;52.272;9.746;2023-02-28T13:10:56;1.30;;;1.20;;
16516;SDS011;8371;52.272;9.746;2023-02-28T13:13:22;2.33;;;1.80;;
16516;SDS011;8371;52.272;9.746;2023-02-28T13:18:39;1.70;;;1.60;;
16516;SDS011;8371;52.272;9.746;2023-02-28T13:21:21;1.70;;;1.60;;
16516;SDS011;8371;52.272;9.746;2023-02-28T13:34:35;1.10;;;1.10;;
16516;SDS011;8371;52.272;9.746;2023-02-28T13:39:51;1.87;;;1.77;;
16516;SDS011;8371;52.272;9.746;2023-02-28T13:47:36;1.40;;;1.40;;
16516;SDS011;8371;52.272;9.746;2023-02-28T14:01:48;1.50;;;1.50;;
16516;SDS011;8371;52.272;9.746;2023-02-28T14:07:02;1.07;;;1.00;;
16516;SDS011;8371;52.272;9.746;2023-02-28T14:09:30;1.43;;;1.43;;
16516;SDS011;8371;52.272;9.746;2023-02-28T14:12:24;1.40;;;1.40;;
16516;SDS011;8371;52.272;9.746;2023-02-28T14:17:14;2.50;;;1.10;;
16516;SDS011;8371;52.272;9.746;2023-02-28T14:19:43;1.67;;;1.10;;
16516;SDS011;8371;52.272;9.746;2023-02-28T14:22:29;1.50;;;1.10;;
16516;SDS011;8371;52.272;9.746;2023-02-28T14:25:27;1.30;;;1.30;;
16516;SDS011;8371;52.272;9.746;2023-02-28T14:28:14;1.40;;;1.30;;
16516;SDS011;8371;52.272;9.746;2023-02-28T14:31:07;1.80;;;1.00;;
16516;SDS011;8371;52.272;9.746;2023-02-28T14:36:27;1.10;;;1.10;;
16516;SDS011;8371;52.272;9.746;2023-02-28T14:39:06;1.10;;;1.10;;
16516;SDS011;8371;52.272;9.746;2023-02-28T14:41:36;1.03;;;1.03;;
16516;SDS011;8371;52.272;9.746;2023-02-28T14:44:27;1.83;;;1.17;;
16516;SDS011;8371;52.272;9.746;2023-02-28T14:46:55;1.10;;;1.10;;
16516;SDS011;8371;52.272;9.746;2023-02-28T14:49:27;1.33;;;1.33;;
16516;SDS011;8371;52.272;9.746;2023-02-28T14:52:09;0.97;;;0.97;;
16516;SDS011;8371;52.272;9.746;2023-02-28T14:54:44;1.13;;;1.13;;
16516;SDS011;8371;52.272;9.746;2023-02-28T14:57:24;1.20;;;1.20;;
16516;SDS011;8371;52.272;9.746;2023-02-28T15:00:09;1.00;;;1.00;;
16516;SDS011;8371;52.272;9.746;2023-02-28T15:02:50;1.17;;;1.17;;
16516;SDS011;8371;52.272;9.746;2023-02-28T15:05:25;1.20;;;1.20;;
16516;SDS011;8371;52.272;9.746;2023-02-28T15:08:00;1.10;;;1.10;;
16516;SDS011;8371;52.272;9.746;2023-02-28T15:10:41;1.20;;;1.20;;
16516;SDS011;8371;52.272;9.746;2023-02-28T15:13:13;1.10;;;1.10;;
16516;SDS011;8371;52.272;9.746;2023-02-28T15:15:41;1.70;;;1.60;;
16516;SDS011;8371;52.272;9.746;2023-02-28T15:18:14;1.10;;;1.10;;
16516;SDS011;8371;52.272;9.746;2023-02-28T15:20:42;1.40;;;1.40;;
16516;SDS011;8371;52.272;9.746;2023-02-28T15:23:09;1.20;;;1.20;;
16516;SDS011;8371;52.272;9.746;2023-02-28T15:25:36;1.10;;;1.10;;
16516;SDS011;8371;52.272;9.746;2023-02-28T15:28:02;1.00;;;1.00;;
16516;SDS011;8371;52.272;9.746;2023-02-28T15:30:29;1.30;;;1.30;;
16516;SDS011;8371;52.272;9.746;2023-02-28T15:35:33;1.17;;;1.17;;
16516;SDS011;8371;52.272;9.746;2023-02-28T15:40:54;1.20;;;1.20;;
16516;SDS011;8371;52.272;9.746;2023-02-28T15:43:28;1.27;;;1.27;;
16516;SDS011;8371;52.272;9.746;2023-02-28T15:45:57;1.20;;;1.20;;
16516;SDS011;8371;52.272;9.746;2023-02-28T15:48:29;1.40;;;1.40;;
16516;SDS011;8371;52.272;9.746;2023-02-28T15:51:02;1.40;;;1.30;;
16516;SDS011;8371;52.272;9.746;2023-02-28T15:53:31;1.10;;;1.10;;
16516;SDS011;8371;52.272;9.746;2023-02-28T15:56:00;1.20;;;1.17;;
16516;SDS011;8371;52.272;9.746;2023-02-28T15:58:28;1.00;;;1.00;;
16516;SDS011;8371;52.272;9.746;2023-02-28T16:01:01;1.10;;;1.10;;
16516;SDS011;8371;52.272;9.746;2023-02-28T16:03:40;1.13;;;1.13;;
16516;SDS011;8371;52.272;9.746;2023-02-28T16:06:30;1.10;;;1.10;;
16516;SDS011;8371;52.272;9.746;2023-02-28T16:09:09;1.30;;;1.30;;
16516;SDS011;8371;52.272;9.746;2023-02-28T16:11:37;1.23;;;1.20;;
16516;SDS011;8371;52.272;9.746;2023-02-28T16:14:06;1.30;;;1.30;;
16516;SDS011;8371;52.272;9.746;2023-02-28T16:16:34;1.20;;;1.20;;
16516;SDS011;8371;52.272;9.746;2023-02-28T16:19:01;1.47;;;1.47;;
16516;SDS011;8371;52.272;9.746;2023-02-28T16:21:27;1.30;;;1.30;;
16516;SDS011;8371;52.272;9.746;2023-02-28T16:23:53;1.07;;;1.07;;
16516;SDS011;8371;52.272;9.746;2023-02-28T16:26:20;1.27;;;1.20;;
16516;SDS011;8371;52.272;9.746;2023-02-28T16:28:48;1.03;;;1.03;;
16516;SDS011;8371;52.272;9.746;2023-02-28T16:31:14;1.27;;;1.27;;
16516;SDS011;8371;52.272;9.746;2023-02-28T16:33:45;1.30;;;1.30;;
16516;SDS011;8371;52.272;9.746;2023-02-28T16:36:18;1.30;;;1.30;;
16516;SDS011;8371;52.272;9.746;2023-02-28T16:38:46;1.07;;;1.07;;
16516;SDS011;8371;52.272;9.746;2023-02-28T16:41:12;1.20;;;1.20;;
16516;SDS011;8371;52.272;9.746;2023-02-28T16:43:42;2.63;;;1.20;;
16516;SDS011;8371;52.272;9.746;2023-02-28T16:46:10;1.90;;;1.20;;
16516;SDS011;8371;52.272;9.746;2023-02-28T16:48:37;1.30;;;1.30;;
16516;SDS011;8371;52.272;9.746;2023-02-28T16:51:04;1.13;;;1.13;;
16516;SDS011;8371;52.272;9.746;2023-02-28T16:53:30;1.10;;;1.10;;